Terminal Aerodrome Forecast
Issued by NWS Sterling, VA

Current Version | Previous Version | Text Only | Print | Product List | Glossary Off
Versions: 1 2 3 4 5 6 7 8 9 10 11 12 13 14 15

000
FTUS41 KLWX 251741
TAFMRB
TAF
KMRB 251741Z 2518/2618 16010G18KT P6SM OVC040
     FM252300 16005KT P6SM BKN025 OVC050 WS020/21040KT
     FM260600 VRB04KT 5SM BR BKN025 WS020/21040KT
     FM261000 VRB04KT 2SM BR BKN025 WS020/21040KT
     FM261300 15004KT 5SM BR BKN050
     FM261600 20012G22KT P6SM BKN050=

USA.gov is the U.S. government's official web portal to all federal, state and local government web resources and services.